MDW weather

Chicago Midway International Airport
Chicago, Illinois, United States

Public forecast

Using degrees Fahrenheit for public forecast. Weather courtesy of forecast.io.

METAR (pilot weather report)

Retrieved 2018/08/18 06:53 UTC (22 minutes ago):

KMDW 180653Z 04003KT 10SM FEW018 FEW120 SCT250 23/22 A2999 RMK AO2 SLP143 T02330217

TAF (pilot weather forecast)

Retrieved 2018/08/18 06:24 UTC (51 minutes ago):

TAF KMDW 180522Z 1806/1912 01004KT P6SM SCT250 FM181600 03010KT P6SM SCT250 FM190200 VRB03KT P6SM FEW200